sensor_id;sensor_type;location;lat;lon;timestamp;P1;durP1;ratioP1;P2;durP2;ratioP2
1719;SDS011;857;52.872;9.692;2022-12-19T00:01:59;14.80;;;9.27;;
1719;SDS011;857;52.872;9.692;2022-12-19T00:04:28;12.53;;;8.97;;
1719;SDS011;857;52.872;9.692;2022-12-19T00:06:56;7.23;;;5.30;;
1719;SDS011;857;52.872;9.692;2022-12-19T00:09:26;15.57;;;9.87;;
1719;SDS011;857;52.872;9.692;2022-12-19T00:11:55;15.83;;;8.57;;
1719;SDS011;857;52.872;9.692;2022-12-19T00:14:22;14.40;;;8.60;;
1719;SDS011;857;52.872;9.692;2022-12-19T00:16:52;17.20;;;9.17;;
1719;SDS011;857;52.872;9.692;2022-12-19T00:19:19;13.60;;;8.87;;
1719;SDS011;857;52.872;9.692;2022-12-19T00:21:49;13.67;;;8.97;;
1719;SDS011;857;52.872;9.692;2022-12-19T00:24:17;13.53;;;9.37;;
1719;SDS011;857;52.872;9.692;2022-12-19T00:26:44;16.00;;;8.90;;
1719;SDS011;857;52.872;9.692;2022-12-19T00:29:15;14.23;;;9.70;;
1719;SDS011;857;52.872;9.692;2022-12-19T00:31:43;14.80;;;9.20;;
1719;SDS011;857;52.872;9.692;2022-12-19T00:34:13;14.50;;;9.87;;
1719;SDS011;857;52.872;9.692;2022-12-19T00:36:44;14.87;;;8.27;;
1719;SDS011;857;52.872;9.692;2022-12-19T00:39:19;9.00;;;4.70;;
1719;SDS011;857;52.872;9.692;2022-12-19T00:41:46;4.67;;;3.40;;
1719;SDS011;857;52.872;9.692;2022-12-19T00:44:14;8.77;;;4.00;;
1719;SDS011;857;52.872;9.692;2022-12-19T00:46:49;8.53;;;4.50;;
1719;SDS011;857;52.872;9.692;2022-12-19T00:49:17;13.40;;;9.10;;
1719;SDS011;857;52.872;9.692;2022-12-19T00:51:45;11.23;;;7.60;;
1719;SDS011;857;52.872;9.692;2022-12-19T00:54:14;12.70;;;9.50;;
1719;SDS011;857;52.872;9.692;2022-12-19T00:56:43;12.20;;;8.80;;
1719;SDS011;857;52.872;9.692;2022-12-19T00:59:11;12.20;;;8.77;;
1719;SDS011;857;52.872;9.692;2022-12-19T01:01:39;16.07;;;9.13;;
1719;SDS011;857;52.872;9.692;2022-12-19T01:04:09;13.23;;;9.23;;
1719;SDS011;857;52.872;9.692;2022-12-19T01:06:40;13.23;;;8.60;;
1719;SDS011;857;52.872;9.692;2022-12-19T01:09:08;11.93;;;8.43;;
1719;SDS011;857;52.872;9.692;2022-12-19T01:11:37;12.57;;;8.97;;
1719;SDS011;857;52.872;9.692;2022-12-19T01:14:24;16.00;;;8.23;;
1719;SDS011;857;52.872;9.692;2022-12-19T01:16:52;14.30;;;8.83;;
1719;SDS011;857;52.872;9.692;2022-12-19T01:19:20;9.30;;;6.50;;
1719;SDS011;857;52.872;9.692;2022-12-19T01:21:48;15.00;;;8.30;;
1719;SDS011;857;52.872;9.692;2022-12-19T01:24:17;17.60;;;10.50;;
1719;SDS011;857;52.872;9.692;2022-12-19T01:26:48;14.00;;;7.67;;
1719;SDS011;857;52.872;9.692;2022-12-19T01:29:16;14.73;;;9.40;;
1719;SDS011;857;52.872;9.692;2022-12-19T01:31:45;10.20;;;5.83;;
1719;SDS011;857;52.872;9.692;2022-12-19T01:34:13;15.80;;;9.77;;
1719;SDS011;857;52.872;9.692;2022-12-19T01:36:40;16.17;;;9.07;;
1719;SDS011;857;52.872;9.692;2022-12-19T01:39:08;11.73;;;7.80;;
1719;SDS011;857;52.872;9.692;2022-12-19T01:41:36;17.17;;;9.43;;
1719;SDS011;857;52.872;9.692;2022-12-19T01:44:05;12.97;;;8.60;;
1719;SDS011;857;52.872;9.692;2022-12-19T01:46:34;12.90;;;8.40;;
1719;SDS011;857;52.872;9.692;2022-12-19T01:49:05;16.87;;;10.13;;
1719;SDS011;857;52.872;9.692;2022-12-19T01:51:38;15.97;;;9.63;;
1719;SDS011;857;52.872;9.692;2022-12-19T01:54:10;12.60;;;8.20;;
1719;SDS011;857;52.872;9.692;2022-12-19T01:56:39;18.03;;;9.67;;
1719;SDS011;857;52.872;9.692;2022-12-19T01:59:10;15.67;;;9.17;;
1719;SDS011;857;52.872;9.692;2022-12-19T02:01:40;17.83;;;10.00;;
1719;SDS011;857;52.872;9.692;2022-12-19T02:04:13;15.80;;;9.27;;
1719;SDS011;857;52.872;9.692;2022-12-19T02:06:45;13.57;;;7.57;;
1719;SDS011;857;52.872;9.692;2022-12-19T02:09:13;14.77;;;9.87;;
1719;SDS011;857;52.872;9.692;2022-12-19T02:11:42;17.07;;;9.83;;
1719;SDS011;857;52.872;9.692;2022-12-19T02:14:12;15.97;;;9.40;;
1719;SDS011;857;52.872;9.692;2022-12-19T02:16:42;14.83;;;9.60;;
1719;SDS011;857;52.872;9.692;2022-12-19T02:19:27;16.70;;;9.93;;
1719;SDS011;857;52.872;9.692;2022-12-19T02:22:00;16.10;;;10.13;;
1719;SDS011;857;52.872;9.692;2022-12-19T02:30:12;15.37;;;9.67;;
1719;SDS011;857;52.872;9.692;2022-12-19T02:32:48;20.00;;;10.90;;
1719;SDS011;857;52.872;9.692;2022-12-19T02:35:22;19.93;;;10.70;;
1719;SDS011;857;52.872;9.692;2022-12-19T02:37:54;21.87;;;11.47;;
1719;SDS011;857;52.872;9.692;2022-12-19T02:40:24;19.67;;;11.37;;
1719;SDS011;857;52.872;9.692;2022-12-19T02:42:56;23.00;;;10.93;;
1719;SDS011;857;52.872;9.692;2022-12-19T02:45:24;17.27;;;9.53;;
1719;SDS011;857;52.872;9.692;2022-12-19T02:47:54;18.20;;;10.70;;
1719;SDS011;857;52.872;9.692;2022-12-19T02:50:23;17.70;;;10.87;;
1719;SDS011;857;52.872;9.692;2022-12-19T02:52:51;23.27;;;11.80;;
1719;SDS011;857;52.872;9.692;2022-12-19T02:55:20;18.67;;;9.83;;
1719;SDS011;857;52.872;9.692;2022-12-19T03:00:32;18.67;;;11.30;;
1719;SDS011;857;52.872;9.692;2022-12-19T03:03:07;17.53;;;11.03;;
1719;SDS011;857;52.872;9.692;2022-12-19T03:05:43;19.87;;;11.57;;
1719;SDS011;857;52.872;9.692;2022-12-19T03:08:13;19.10;;;11.20;;
1719;SDS011;857;52.872;9.692;2022-12-19T03:10:47;16.70;;;10.50;;
1719;SDS011;857;52.872;9.692;2022-12-19T03:13:16;18.10;;;10.60;;
1719;SDS011;857;52.872;9.692;2022-12-19T03:15:47;19.93;;;11.20;;
1719;SDS011;857;52.872;9.692;2022-12-19T03:18:17;20.07;;;10.43;;
1719;SDS011;857;52.872;9.692;2022-12-19T03:20:46;19.70;;;11.17;;
1719;SDS011;857;52.872;9.692;2022-12-19T03:23:14;18.47;;;10.97;;
1719;SDS011;857;52.872;9.692;2022-12-19T03:25:43;15.67;;;9.50;;
1719;SDS011;857;52.872;9.692;2022-12-19T03:28:14;19.10;;;11.07;;
1719;SDS011;857;52.872;9.692;2022-12-19T03:30:42;19.00;;;10.47;;
1719;SDS011;857;52.872;9.692;2022-12-19T03:33:12;19.37;;;11.33;;
1719;SDS011;857;52.872;9.692;2022-12-19T03:35:44;16.30;;;9.47;;
1719;SDS011;857;52.872;9.692;2022-12-19T03:38:12;20.43;;;11.70;;
1719;SDS011;857;52.872;9.692;2022-12-19T03:40:42;18.97;;;11.13;;
1719;SDS011;857;52.872;9.692;2022-12-19T03:43:10;22.50;;;13.30;;
1719;SDS011;857;52.872;9.692;2022-12-19T03:45:47;21.90;;;11.83;;
1719;SDS011;857;52.872;9.692;2022-12-19T03:48:18;23.83;;;12.80;;
1719;SDS011;857;52.872;9.692;2022-12-19T03:50:51;18.63;;;11.20;;
1719;SDS011;857;52.872;9.692;2022-12-19T03:53:23;22.13;;;11.10;;
1719;SDS011;857;52.872;9.692;2022-12-19T03:55:56;20.93;;;11.37;;
1719;SDS011;857;52.872;9.692;2022-12-19T03:58:26;21.20;;;11.27;;
1719;SDS011;857;52.872;9.692;2022-12-19T04:00:55;20.17;;;11.10;;
1719;SDS011;857;52.872;9.692;2022-12-19T04:03:23;21.07;;;11.23;;
1719;SDS011;857;52.872;9.692;2022-12-19T04:05:53;22.77;;;12.23;;
1719;SDS011;857;52.872;9.692;2022-12-19T04:08:22;18.87;;;11.43;;
1719;SDS011;857;52.872;9.692;2022-12-19T04:10:52;22.70;;;13.17;;
1719;SDS011;857;52.872;9.692;2022-12-19T04:13:21;22.23;;;11.20;;
1719;SDS011;857;52.872;9.692;2022-12-19T04:15:50;19.93;;;11.73;;
1719;SDS011;857;52.872;9.692;2022-12-19T04:18:20;19.97;;;11.40;;
1719;SDS011;857;52.872;9.692;2022-12-19T04:20:50;22.13;;;11.97;;
1719;SDS011;857;52.872;9.692;2022-12-19T04:23:22;21.50;;;11.57;;
1719;SDS011;857;52.872;9.692;2022-12-19T04:25:51;19.40;;;11.30;;
1719;SDS011;857;52.872;9.692;2022-12-19T04:28:23;21.07;;;11.30;;
1719;SDS011;857;52.872;9.692;2022-12-19T04:30:51;22.37;;;11.00;;
1719;SDS011;857;52.872;9.692;2022-12-19T04:33:20;18.80;;;10.90;;
1719;SDS011;857;52.872;9.692;2022-12-19T04:35:48;12.50;;;7.37;;
1719;SDS011;857;52.872;9.692;2022-12-19T04:38:15;22.67;;;11.27;;
1719;SDS011;857;52.872;9.692;2022-12-19T04:40:45;21.83;;;11.53;;
1719;SDS011;857;52.872;9.692;2022-12-19T04:43:13;21.77;;;12.20;;
1719;SDS011;857;52.872;9.692;2022-12-19T04:45:40;17.23;;;10.80;;
1719;SDS011;857;52.872;9.692;2022-12-19T04:48:08;19.73;;;11.83;;
1719;SDS011;857;52.872;9.692;2022-12-19T04:50:36;15.27;;;10.50;;
1719;SDS011;857;52.872;9.692;2022-12-19T04:53:04;20.17;;;11.80;;
1719;SDS011;857;52.872;9.692;2022-12-19T04:55:32;19.83;;;10.73;;
1719;SDS011;857;52.872;9.692;2022-12-19T04:58:01;21.10;;;11.57;;
1719;SDS011;857;52.872;9.692;2022-12-19T05:00:29;20.33;;;11.00;;
1719;SDS011;857;52.872;9.692;2022-12-19T05:02:57;19.93;;;11.83;;
1719;SDS011;857;52.872;9.692;2022-12-19T05:05:25;22.53;;;12.23;;
1719;SDS011;857;52.872;9.692;2022-12-19T05:07:53;23.00;;;12.47;;
1719;SDS011;857;52.872;9.692;2022-12-19T05:10:22;18.23;;;11.60;;
1719;SDS011;857;52.872;9.692;2022-12-19T05:12:50;20.43;;;12.00;;
1719;SDS011;857;52.872;9.692;2022-12-19T05:15:19;19.73;;;11.47;;
1719;SDS011;857;52.872;9.692;2022-12-19T05:17:48;20.63;;;11.27;;
1719;SDS011;857;52.872;9.692;2022-12-19T05:20:15;20.07;;;11.20;;
1719;SDS011;857;52.872;9.692;2022-12-19T05:22:43;18.00;;;10.43;;
1719;SDS011;857;52.872;9.692;2022-12-19T05:25:11;18.97;;;11.60;;
1719;SDS011;857;52.872;9.692;2022-12-19T05:27:39;20.50;;;11.50;;
1719;SDS011;857;52.872;9.692;2022-12-19T05:30:07;22.70;;;12.13;;
1719;SDS011;857;52.872;9.692;2022-12-19T05:32:36;21.40;;;11.50;;
1719;SDS011;857;52.872;9.692;2022-12-19T05:35:05;19.70;;;10.90;;
1719;SDS011;857;52.872;9.692;2022-12-19T05:37:33;20.83;;;10.90;;
1719;SDS011;857;52.872;9.692;2022-12-19T05:40:01;19.70;;;11.47;;
1719;SDS011;857;52.872;9.692;2022-12-19T05:42:28;22.00;;;11.23;;
1719;SDS011;857;52.872;9.692;2022-12-19T05:44:56;20.87;;;12.00;;
1719;SDS011;857;52.872;9.692;2022-12-19T05:47:24;22.30;;;10.47;;
1719;SDS011;857;52.872;9.692;2022-12-19T05:49:53;20.63;;;10.90;;
1719;SDS011;857;52.872;9.692;2022-12-19T05:52:21;19.33;;;10.93;;
1719;SDS011;857;52.872;9.692;2022-12-19T05:54:50;25.73;;;12.57;;
1719;SDS011;857;52.872;9.692;2022-12-19T05:57:17;21.43;;;12.53;;
1719;SDS011;857;52.872;9.692;2022-12-19T05:59:45;19.93;;;11.17;;
1719;SDS011;857;52.872;9.692;2022-12-19T06:02:13;17.87;;;11.00;;
1719;SDS011;857;52.872;9.692;2022-12-19T06:04:44;21.57;;;13.23;;
1719;SDS011;857;52.872;9.692;2022-12-19T06:07:14;20.97;;;12.80;;
1719;SDS011;857;52.872;9.692;2022-12-19T06:09:42;23.50;;;13.13;;
1719;SDS011;857;52.872;9.692;2022-12-19T06:12:10;21.67;;;12.10;;
1719;SDS011;857;52.872;9.692;2022-12-19T06:14:38;21.70;;;12.23;;
1719;SDS011;857;52.872;9.692;2022-12-19T06:17:05;21.67;;;11.97;;
1719;SDS011;857;52.872;9.692;2022-12-19T06:19:33;22.67;;;12.77;;
1719;SDS011;857;52.872;9.692;2022-12-19T06:22:03;22.70;;;12.80;;
1719;SDS011;857;52.872;9.692;2022-12-19T06:24:32;19.53;;;11.47;;
1719;SDS011;857;52.872;9.692;2022-12-19T06:27:00;23.10;;;12.97;;
1719;SDS011;857;52.872;9.692;2022-12-19T06:29:28;20.27;;;12.17;;
1719;SDS011;857;52.872;9.692;2022-12-19T06:31:56;17.43;;;9.77;;
1719;SDS011;857;52.872;9.692;2022-12-19T06:34:24;22.33;;;12.73;;
1719;SDS011;857;52.872;9.692;2022-12-19T06:36:52;22.70;;;13.00;;
1719;SDS011;857;52.872;9.692;2022-12-19T06:39:20;21.77;;;10.70;;
1719;SDS011;857;52.872;9.692;2022-12-19T06:41:49;21.97;;;11.60;;
1719;SDS011;857;52.872;9.692;2022-12-19T06:44:34;23.47;;;12.30;;
1719;SDS011;857;52.872;9.692;2022-12-19T06:47:02;20.10;;;11.00;;
1719;SDS011;857;52.872;9.692;2022-12-19T06:49:30;19.97;;;11.33;;
1719;SDS011;857;52.872;9.692;2022-12-19T06:51:58;23.57;;;13.13;;
1719;SDS011;857;52.872;9.692;2022-12-19T06:54:26;19.33;;;12.03;;
1719;SDS011;857;52.872;9.692;2022-12-19T06:56:55;22.00;;;11.90;;
1719;SDS011;857;52.872;9.692;2022-12-19T06:59:23;25.57;;;14.00;;
1719;SDS011;857;52.872;9.692;2022-12-19T07:01:53;26.33;;;13.20;;
1719;SDS011;857;52.872;9.692;2022-12-19T07:04:23;20.60;;;8.60;;
1719;SDS011;857;52.872;9.692;2022-12-19T07:06:51;21.33;;;12.33;;
1719;SDS011;857;52.872;9.692;2022-12-19T07:09:19;23.43;;;13.60;;
1719;SDS011;857;52.872;9.692;2022-12-19T07:11:49;20.37;;;12.47;;
1719;SDS011;857;52.872;9.692;2022-12-19T07:14:19;16.90;;;10.43;;
1719;SDS011;857;52.872;9.692;2022-12-19T07:16:47;23.67;;;12.53;;
1719;SDS011;857;52.872;9.692;2022-12-19T07:19:18;21.20;;;13.00;;
1719;SDS011;857;52.872;9.692;2022-12-19T07:21:49;25.83;;;12.80;;
1719;SDS011;857;52.872;9.692;2022-12-19T07:24:22;22.80;;;12.27;;
1719;SDS011;857;52.872;9.692;2022-12-19T07:30:00;22.50;;;11.97;;
1719;SDS011;857;52.872;9.692;2022-12-19T07:35:45;21.63;;;12.30;;
1719;SDS011;857;52.872;9.692;2022-12-19T07:38:16;22.87;;;12.40;;
1719;SDS011;857;52.872;9.692;2022-12-19T07:40:47;21.23;;;13.03;;
1719;SDS011;857;52.872;9.692;2022-12-19T07:43:15;26.00;;;14.77;;
1719;SDS011;857;52.872;9.692;2022-12-19T07:45:44;23.57;;;13.40;;
1719;SDS011;857;52.872;9.692;2022-12-19T07:48:12;24.93;;;14.30;;
1719;SDS011;857;52.872;9.692;2022-12-19T07:50:41;24.70;;;13.00;;
1719;SDS011;857;52.872;9.692;2022-12-19T07:53:10;26.40;;;14.17;;
1719;SDS011;857;52.872;9.692;2022-12-19T07:55:39;27.70;;;15.00;;
1719;SDS011;857;52.872;9.692;2022-12-19T07:58:07;26.13;;;15.17;;
1719;SDS011;857;52.872;9.692;2022-12-19T08:00:35;21.43;;;12.17;;
1719;SDS011;857;52.872;9.692;2022-12-19T08:03:05;23.20;;;14.87;;
1719;SDS011;857;52.872;9.692;2022-12-19T08:05:35;26.60;;;14.00;;
1719;SDS011;857;52.872;9.692;2022-12-19T08:08:03;26.67;;;14.10;;
1719;SDS011;857;52.872;9.692;2022-12-19T08:10:32;26.53;;;14.57;;
1719;SDS011;857;52.872;9.692;2022-12-19T08:13:03;18.67;;;10.70;;
1719;SDS011;857;52.872;9.692;2022-12-19T08:15:34;24.43;;;14.73;;
1719;SDS011;857;52.872;9.692;2022-12-19T08:18:05;32.07;;;15.67;;
1719;SDS011;857;52.872;9.692;2022-12-19T08:20:42;30.93;;;16.10;;
1719;SDS011;857;52.872;9.692;2022-12-19T08:23:10;26.83;;;15.30;;
1719;SDS011;857;52.872;9.692;2022-12-19T08:25:40;25.90;;;14.87;;
1719;SDS011;857;52.872;9.692;2022-12-19T08:31:07;32.13;;;16.10;;
1719;SDS011;857;52.872;9.692;2022-12-19T08:33:43;25.13;;;15.13;;
1719;SDS011;857;52.872;9.692;2022-12-19T08:36:17;28.67;;;15.50;;
1719;SDS011;857;52.872;9.692;2022-12-19T08:38:50;26.17;;;12.93;;
1719;SDS011;857;52.872;9.692;2022-12-19T08:41:20;31.70;;;16.30;;
1719;SDS011;857;52.872;9.692;2022-12-19T08:44:03;31.77;;;16.30;;
1719;SDS011;857;52.872;9.692;2022-12-19T08:46:45;31.63;;;16.43;;
1719;SDS011;857;52.872;9.692;2022-12-19T08:49:18;30.07;;;16.77;;
1719;SDS011;857;52.872;9.692;2022-12-19T08:52:00;29.27;;;15.57;;
1719;SDS011;857;52.872;9.692;2022-12-19T08:54:37;20.77;;;11.87;;
1719;SDS011;857;52.872;9.692;2022-12-19T08:57:08;33.67;;;16.87;;
1719;SDS011;857;52.872;9.692;2022-12-19T08:59:38;35.57;;;19.37;;
1719;SDS011;857;52.872;9.692;2022-12-19T09:02:09;19.47;;;12.60;;
1719;SDS011;857;52.872;9.692;2022-12-19T09:04:39;31.57;;;16.53;;
1719;SDS011;857;52.872;9.692;2022-12-19T09:07:12;36.53;;;17.43;;
1719;SDS011;857;52.872;9.692;2022-12-19T09:09:40;27.43;;;14.70;;
1719;SDS011;857;52.872;9.692;2022-12-19T09:12:08;28.87;;;16.53;;
1719;SDS011;857;52.872;9.692;2022-12-19T09:14:36;18.93;;;11.00;;
1719;SDS011;857;52.872;9.692;2022-12-19T09:17:04;33.57;;;19.40;;
1719;SDS011;857;52.872;9.692;2022-12-19T09:19:33;31.83;;;16.50;;
1719;SDS011;857;52.872;9.692;2022-12-19T09:22:02;26.00;;;15.10;;
1719;SDS011;857;52.872;9.692;2022-12-19T09:24:30;26.23;;;12.77;;
1719;SDS011;857;52.872;9.692;2022-12-19T09:27:01;30.90;;;17.10;;
1719;SDS011;857;52.872;9.692;2022-12-19T09:29:29;28.00;;;16.63;;
1719;SDS011;857;52.872;9.692;2022-12-19T09:31:56;28.27;;;14.67;;
1719;SDS011;857;52.872;9.692;2022-12-19T09:34:27;32.80;;;16.83;;
1719;SDS011;857;52.872;9.692;2022-12-19T09:36:55;29.03;;;15.60;;
1719;SDS011;857;52.872;9.692;2022-12-19T09:39:25;25.23;;;13.83;;
1719;SDS011;857;52.872;9.692;2022-12-19T09:42:00;16.77;;;10.80;;
1719;SDS011;857;52.872;9.692;2022-12-19T09:44:39;23.83;;;13.10;;
1719;SDS011;857;52.872;9.692;2022-12-19T09:47:12;31.80;;;17.37;;
1719;SDS011;857;52.872;9.692;2022-12-19T09:49:41;34.47;;;17.27;;
1719;SDS011;857;52.872;9.692;2022-12-19T09:52:10;33.73;;;16.80;;
1719;SDS011;857;52.872;9.692;2022-12-19T09:54:42;32.17;;;16.63;;
1719;SDS011;857;52.872;9.692;2022-12-19T09:57:12;25.33;;;14.40;;
1719;SDS011;857;52.872;9.692;2022-12-19T09:59:52;31.07;;;17.90;;
1719;SDS011;857;52.872;9.692;2022-12-19T10:02:25;33.13;;;17.33;;
1719;SDS011;857;52.872;9.692;2022-12-19T10:05:04;33.37;;;18.40;;
1719;SDS011;857;52.872;9.692;2022-12-19T10:07:36;34.80;;;18.13;;
1719;SDS011;857;52.872;9.692;2022-12-19T10:10:12;30.83;;;17.53;;
1719;SDS011;857;52.872;9.692;2022-12-19T10:12:42;34.67;;;18.63;;
1719;SDS011;857;52.872;9.692;2022-12-19T10:15:16;32.40;;;17.57;;
1719;SDS011;857;52.872;9.692;2022-12-19T10:17:54;35.23;;;17.03;;
1719;SDS011;857;52.872;9.692;2022-12-19T10:20:26;35.10;;;17.87;;
1719;SDS011;857;52.872;9.692;2022-12-19T10:23:04;35.43;;;19.43;;
1719;SDS011;857;52.872;9.692;2022-12-19T10:25:53;35.50;;;17.07;;
1719;SDS011;857;52.872;9.692;2022-12-19T10:28:35;36.50;;;19.27;;
1719;SDS011;857;52.872;9.692;2022-12-19T10:31:10;33.07;;;16.57;;
1719;SDS011;857;52.872;9.692;2022-12-19T10:33:42;25.60;;;14.80;;
1719;SDS011;857;52.872;9.692;2022-12-19T10:36:20;31.17;;;17.73;;
1719;SDS011;857;52.872;9.692;2022-12-19T10:38:50;31.27;;;19.20;;
1719;SDS011;857;52.872;9.692;2022-12-19T10:41:25;31.17;;;18.50;;
1719;SDS011;857;52.872;9.692;2022-12-19T10:43:59;29.53;;;15.83;;
1719;SDS011;857;52.872;9.692;2022-12-19T10:46:35;30.50;;;17.27;;
1719;SDS011;857;52.872;9.692;2022-12-19T10:49:10;28.23;;;15.40;;
1719;SDS011;857;52.872;9.692;2022-12-19T10:51:39;25.63;;;15.10;;
1719;SDS011;857;52.872;9.692;2022-12-19T10:54:15;32.17;;;18.40;;
1719;SDS011;857;52.872;9.692;2022-12-19T10:56:47;29.43;;;17.43;;
1719;SDS011;857;52.872;9.692;2022-12-19T10:59:16;81.20;;;36.10;;
1719;SDS011;857;52.872;9.692;2022-12-19T11:01:46;27.83;;;17.30;;
1719;SDS011;857;52.872;9.692;2022-12-19T11:04:23;31.90;;;18.40;;
1719;SDS011;857;52.872;9.692;2022-12-19T11:09:50;23.80;;;14.40;;
1719;SDS011;857;52.872;9.692;2022-12-19T11:12:20;26.53;;;16.37;;
1719;SDS011;857;52.872;9.692;2022-12-19T11:14:52;27.70;;;15.97;;
1719;SDS011;857;52.872;9.692;2022-12-19T11:17:23;27.93;;;15.20;;
1719;SDS011;857;52.872;9.692;2022-12-19T11:19:57;23.93;;;11.83;;
1719;SDS011;857;52.872;9.692;2022-12-19T11:22:33;29.17;;;16.60;;
1719;SDS011;857;52.872;9.692;2022-12-19T11:25:15;27.20;;;15.50;;
1719;SDS011;857;52.872;9.692;2022-12-19T11:27:46;29.07;;;15.10;;
1719;SDS011;857;52.872;9.692;2022-12-19T11:30:19;24.33;;;14.33;;
1719;SDS011;857;52.872;9.692;2022-12-19T11:32:49;27.97;;;15.20;;
1719;SDS011;857;52.872;9.692;2022-12-19T11:35:45;25.97;;;14.50;;
1719;SDS011;857;52.872;9.692;2022-12-19T11:38:17;29.17;;;16.50;;
1719;SDS011;857;52.872;9.692;2022-12-19T11:40:50;23.33;;;14.00;;
1719;SDS011;857;52.872;9.692;2022-12-19T11:43:23;27.00;;;15.97;;
1719;SDS011;857;52.872;9.692;2022-12-19T11:45:55;27.83;;;15.67;;
1719;SDS011;857;52.872;9.692;2022-12-19T11:48:28;27.00;;;16.40;;
1719;SDS011;857;52.872;9.692;2022-12-19T11:51:03;28.90;;;17.47;;
1719;SDS011;857;52.872;9.692;2022-12-19T11:53:34;30.73;;;16.50;;
1719;SDS011;857;52.872;9.692;2022-12-19T11:56:22;28.67;;;16.70;;
1719;SDS011;857;52.872;9.692;2022-12-19T11:58:54;31.20;;;17.07;;
1719;SDS011;857;52.872;9.692;2022-12-19T12:01:38;28.70;;;17.43;;
1719;SDS011;857;52.872;9.692;2022-12-19T12:07:02;33.00;;;21.10;;
1719;SDS011;857;52.872;9.692;2022-12-19T12:09:41;32.23;;;17.87;;
1719;SDS011;857;52.872;9.692;2022-12-19T12:12:15;26.40;;;15.33;;
1719;SDS011;857;52.872;9.692;2022-12-19T12:18:38;29.37;;;16.77;;
1719;SDS011;857;52.872;9.692;2022-12-19T12:21:21;28.37;;;17.03;;
1719;SDS011;857;52.872;9.692;2022-12-19T12:24:07;26.70;;;16.57;;
1719;SDS011;857;52.872;9.692;2022-12-19T12:26:44;21.07;;;11.77;;
1719;SDS011;857;52.872;9.692;2022-12-19T12:29:17;34.73;;;17.97;;
1719;SDS011;857;52.872;9.692;2022-12-19T12:32:01;34.03;;;16.87;;
1719;SDS011;857;52.872;9.692;2022-12-19T12:34:41;32.20;;;19.40;;
1719;SDS011;857;52.872;9.692;2022-12-19T12:37:16;33.43;;;18.10;;
1719;SDS011;857;52.872;9.692;2022-12-19T12:39:51;28.50;;;15.43;;
1719;SDS011;857;52.872;9.692;2022-12-19T12:42:35;29.57;;;16.97;;
1719;SDS011;857;52.872;9.692;2022-12-19T12:45:16;84.53;;;45.30;;
1719;SDS011;857;52.872;9.692;2022-12-19T12:47:50;30.47;;;16.73;;
1719;SDS011;857;52.872;9.692;2022-12-19T12:50:24;28.97;;;17.00;;
1719;SDS011;857;52.872;9.692;2022-12-19T12:53:02;34.47;;;18.00;;
1719;SDS011;857;52.872;9.692;2022-12-19T12:55:37;31.57;;;17.40;;
1719;SDS011;857;52.872;9.692;2022-12-19T13:03:36;31.63;;;18.50;;
1719;SDS011;857;52.872;9.692;2022-12-19T13:09:16;29.90;;;17.43;;
1719;SDS011;857;52.872;9.692;2022-12-19T13:11:49;34.07;;;19.60;;
1719;SDS011;857;52.872;9.692;2022-12-19T13:14:43;34.43;;;19.70;;
1719;SDS011;857;52.872;9.692;2022-12-19T13:17:11;36.50;;;20.67;;
1719;SDS011;857;52.872;9.692;2022-12-19T13:19:51;41.00;;;20.87;;
1719;SDS011;857;52.872;9.692;2022-12-19T13:22:38;42.63;;;21.80;;
1719;SDS011;857;52.872;9.692;2022-12-19T13:27:56;35.67;;;20.47;;
1719;SDS011;857;52.872;9.692;2022-12-19T13:31:11;35.70;;;20.80;;
1719;SDS011;857;52.872;9.692;2022-12-19T13:33:17;42.70;;;21.20;;
1719;SDS011;857;52.872;9.692;2022-12-19T13:35:53;31.20;;;18.07;;
1719;SDS011;857;52.872;9.692;2022-12-19T13:38:32;40.10;;;22.90;;
1719;SDS011;857;52.872;9.692;2022-12-19T13:44:14;36.33;;;21.07;;
1719;SDS011;857;52.872;9.692;2022-12-19T13:46:58;47.47;;;20.23;;
1719;SDS011;857;52.872;9.692;2022-12-19T13:49:29;44.57;;;23.90;;
1719;SDS011;857;52.872;9.692;2022-12-19T13:52:05;45.63;;;23.60;;
1719;SDS011;857;52.872;9.692;2022-12-19T13:54:43;42.87;;;24.23;;
1719;SDS011;857;52.872;9.692;2022-12-19T13:57:35;46.43;;;24.93;;
1719;SDS011;857;52.872;9.692;2022-12-19T14:00:18;49.00;;;24.70;;
1719;SDS011;857;52.872;9.692;2022-12-19T14:02:49;44.40;;;22.97;;
1719;SDS011;857;52.872;9.692;2022-12-19T14:05:39;46.13;;;26.10;;
1719;SDS011;857;52.872;9.692;2022-12-19T14:08:10;44.80;;;24.80;;
1719;SDS011;857;52.872;9.692;2022-12-19T14:10:43;43.27;;;24.27;;
1719;SDS011;857;52.872;9.692;2022-12-19T14:13:19;48.50;;;26.50;;
1719;SDS011;857;52.872;9.692;2022-12-19T14:16:14;44.20;;;24.50;;
1719;SDS011;857;52.872;9.692;2022-12-19T14:18:48;47.73;;;24.10;;
1719;SDS011;857;52.872;9.692;2022-12-19T14:21:28;47.60;;;24.30;;
1719;SDS011;857;52.872;9.692;2022-12-19T14:24:14;45.70;;;24.00;;
1719;SDS011;857;52.872;9.692;2022-12-19T14:26:46;47.60;;;23.90;;
1719;SDS011;857;52.872;9.692;2022-12-19T14:29:39;48.87;;;24.20;;
1719;SDS011;857;52.872;9.692;2022-12-19T14:32:20;44.23;;;23.27;;
1719;SDS011;857;52.872;9.692;2022-12-19T14:34:53;47.87;;;23.47;;
1719;SDS011;857;52.872;9.692;2022-12-19T14:37:44;54.13;;;26.57;;
1719;SDS011;857;52.872;9.692;2022-12-19T14:40:18;45.87;;;23.30;;
1719;SDS011;857;52.872;9.692;2022-12-19T14:42:57;50.37;;;26.73;;
1719;SDS011;857;52.872;9.692;2022-12-19T14:46:10;50.10;;;24.03;;
1719;SDS011;857;52.872;9.692;2022-12-19T14:48:57;47.63;;;23.90;;
1719;SDS011;857;52.872;9.692;2022-12-19T14:51:31;52.67;;;24.70;;
1719;SDS011;857;52.872;9.692;2022-12-19T14:54:14;44.73;;;24.87;;
1719;SDS011;857;52.872;9.692;2022-12-19T14:56:49;47.73;;;24.53;;
1719;SDS011;857;52.872;9.692;2022-12-19T15:05:40;50.60;;;26.37;;
1719;SDS011;857;52.872;9.692;2022-12-19T15:08:27;51.17;;;26.03;;
1719;SDS011;857;52.872;9.692;2022-12-19T15:17:57;48.70;;;26.10;;
1719;SDS011;857;52.872;9.692;2022-12-19T15:20:50;53.90;;;26.30;;
1719;SDS011;857;52.872;9.692;2022-12-19T15:23:34;54.03;;;26.77;;
1719;SDS011;857;52.872;9.692;2022-12-19T15:26:26;52.23;;;26.73;;
1719;SDS011;857;52.872;9.692;2022-12-19T15:29:14;48.07;;;23.77;;
1719;SDS011;857;52.872;9.692;2022-12-19T15:31:46;49.80;;;25.10;;
1719;SDS011;857;52.872;9.692;2022-12-19T15:49:43;66.20;;;33.93;;
1719;SDS011;857;52.872;9.692;2022-12-19T15:53:04;65.23;;;34.77;;
1719;SDS011;857;52.872;9.692;2022-12-19T15:56:26;64.20;;;32.10;;
1719;SDS011;857;52.872;9.692;2022-12-19T15:59:21;67.43;;;31.70;;
1719;SDS011;857;52.872;9.692;2022-12-19T16:08:48;54.50;;;26.33;;
1719;SDS011;857;52.872;9.692;2022-12-19T16:11:29;60.80;;;30.83;;
1719;SDS011;857;52.872;9.692;2022-12-19T16:14:12;62.27;;;30.73;;
1719;SDS011;857;52.872;9.692;2022-12-19T16:16:43;61.73;;;28.40;;
1719;SDS011;857;52.872;9.692;2022-12-19T16:19:50;61.00;;;29.97;;
1719;SDS011;857;52.872;9.692;2022-12-19T16:32:07;60.30;;;31.13;;
1719;SDS011;857;52.872;9.692;2022-12-19T16:35:11;54.57;;;28.60;;
1719;SDS011;857;52.872;9.692;2022-12-19T16:41:37;61.87;;;28.53;;
1719;SDS011;857;52.872;9.692;2022-12-19T16:48:31;58.63;;;28.67;;
1719;SDS011;857;52.872;9.692;2022-12-19T16:51:07;54.40;;;27.50;;
1719;SDS011;857;52.872;9.692;2022-12-19T16:54:26;59.23;;;28.33;;
1719;SDS011;857;52.872;9.692;2022-12-19T16:57:30;61.00;;;27.60;;
1719;SDS011;857;52.872;9.692;2022-12-19T17:00:55;58.63;;;28.03;;
1719;SDS011;857;52.872;9.692;2022-12-19T17:26:11;52.33;;;27.07;;
1719;SDS011;857;52.872;9.692;2022-12-19T17:29:51;49.87;;;26.30;;
1719;SDS011;857;52.872;9.692;2022-12-19T17:33:10;55.50;;;26.07;;
1719;SDS011;857;52.872;9.692;2022-12-19T17:36:09;42.60;;;25.20;;
1719;SDS011;857;52.872;9.692;2022-12-19T17:40:18;46.10;;;26.07;;
1719;SDS011;857;52.872;9.692;2022-12-19T18:00:15;47.53;;;26.63;;